createdAt,value
2023-03-17T00:01:06.098Z,5.36
2023-03-17T00:03:55.278Z,5.29
2023-03-17T00:06:44.909Z,5.26
2023-03-17T00:09:33.779Z,5.26
2023-03-17T00:12:25.190Z,5.24
2023-03-17T00:15:17.038Z,5.19
2023-03-17T00:18:05.890Z,5.12
2023-03-17T00:20:55.510Z,5.15
2023-03-17T00:23:56.461Z,5.18
2023-03-17T00:26:46.182Z,5.09
2023-03-17T00:29:36.672Z,5.05
2023-03-17T00:32:37.826Z,4.62
2023-03-17T00:35:30.075Z,4.93
2023-03-17T00:38:21.441Z,4.86
2023-03-17T00:41:12.835Z,4.83
2023-03-17T00:44:02.240Z,4.84
2023-03-17T00:46:52.608Z,4.80
2023-03-17T00:49:41.335Z,4.81
2023-03-17T00:52:34.782Z,4.74
2023-03-17T00:55:26.945Z,4.76
2023-03-17T00:58:21.317Z,4.78
2023-03-17T01:01:12.854Z,4.76
2023-03-17T01:04:03.474Z,4.75
2023-03-17T01:07:04.164Z,4.72
2023-03-17T01:09:54.180Z,4.62
2023-03-17T01:12:43.084Z,4.58
2023-03-17T01:15:34.687Z,4.51
2023-03-17T01:18:23.497Z,4.52
2023-03-17T01:21:14.299Z,4.64
2023-03-17T01:24:02.886Z,4.68
2023-03-17T01:26:51.948Z,4.70
2023-03-17T01:29:40.609Z,4.65
2023-03-17T01:32:29.402Z,4.67
2023-03-17T01:38:28.302Z,4.64
2023-03-17T01:41:17.538Z,4.61
2023-03-17T01:44:07.201Z,4.62
2023-03-17T01:46:56.674Z,4.56
2023-03-17T01:49:45.549Z,4.59
2023-03-17T01:52:38.118Z,4.57
2023-03-17T01:55:28.348Z,4.54
2023-03-17T01:58:20.793Z,4.48
2023-03-17T02:01:10.686Z,4.41
2023-03-17T02:04:01.530Z,4.36
2023-03-17T02:06:58.096Z,4.37
2023-03-17T02:09:48.779Z,4.36
2023-03-17T02:12:46.592Z,4.33
2023-03-17T02:15:40.757Z,4.38
2023-03-17T02:18:29.675Z,4.34
2023-03-17T02:21:39.234Z,4.33
2023-03-17T02:24:35.914Z,4.30
2023-03-17T02:27:32.883Z,4.31
2023-03-17T02:30:23.763Z,4.31
2023-03-17T02:33:12.941Z,4.31
2023-03-17T02:36:02.338Z,4.32
2023-03-17T02:38:52.841Z,4.31
2023-03-17T02:41:42.493Z,4.29
2023-03-17T02:44:31.471Z,4.24
2023-03-17T02:47:20.616Z,4.12
2023-03-17T02:50:18.103Z,4.18
2023-03-17T02:53:08.601Z,4.10
2023-03-17T02:55:58.698Z,4.08
2023-03-17T02:58:48.323Z,4.09
2023-03-17T03:01:38.877Z,4.10
2023-03-17T03:04:28.853Z,4.05
2023-03-17T03:07:18.492Z,4.02
2023-03-17T03:10:09.725Z,4.09
2023-03-17T03:12:59.669Z,4.12
2023-03-17T03:15:49.297Z,3.91
2023-03-17T03:18:38.172Z,3.81
2023-03-17T03:21:27.167Z,4.07
2023-03-17T03:24:15.912Z,4.01
2023-03-17T03:27:05.618Z,3.95
2023-03-17T03:29:55.599Z,3.94
2023-03-17T03:32:44.733Z,3.87
2023-03-17T03:35:35.395Z,3.88
2023-03-17T03:38:25.247Z,3.87
2023-03-17T03:41:14.172Z,3.90
2023-03-17T03:44:03.058Z,3.88
2023-03-17T03:46:53.988Z,3.83
2023-03-17T03:49:43.092Z,3.91
2023-03-17T03:52:31.666Z,3.85
2023-03-17T03:55:20.950Z,3.86
2023-03-17T03:58:09.608Z,3.87
2023-03-17T04:00:59.226Z,3.83
2023-03-17T04:03:49.182Z,3.84
2023-03-17T04:06:37.838Z,3.83
2023-03-17T04:09:26.807Z,3.86
2023-03-17T04:12:15.700Z,3.79
2023-03-17T04:15:06.614Z,3.82
2023-03-17T04:17:55.962Z,3.73
2023-03-17T04:20:47.862Z,3.64
2023-03-17T04:23:36.565Z,3.58
2023-03-17T04:26:25.569Z,3.54
2023-03-17T04:29:15.716Z,3.46
2023-03-17T04:32:06.449Z,3.46
2023-03-17T04:34:55.132Z,2.99
2023-03-17T04:37:46.176Z,3.47
2023-03-17T04:40:34.917Z,3.53
2023-03-17T04:43:23.513Z,3.51
2023-03-17T04:46:12.560Z,3.53
2023-03-17T04:49:01.464Z,3.47
2023-03-17T04:51:52.766Z,3.43
2023-03-17T04:54:42.902Z,3.36
2023-03-17T04:57:32.531Z,3.47
2023-03-17T05:00:21.366Z,3.49
2023-03-17T05:03:24.052Z,3.47
2023-03-17T05:06:16.703Z,3.52
2023-03-17T05:09:05.565Z,3.46
2023-03-17T05:11:56.456Z,3.43
2023-03-17T05:14:45.035Z,3.43
2023-03-17T05:17:34.546Z,3.41
2023-03-17T05:20:23.496Z,3.41
2023-03-17T05:23:12.763Z,3.40
2023-03-17T05:26:01.566Z,3.40
2023-03-17T05:28:52.570Z,3.44
2023-03-17T05:31:41.915Z,3.41
2023-03-17T05:34:31.901Z,3.41
2023-03-17T05:37:20.498Z,3.43
2023-03-17T05:40:11.453Z,3.44
2023-03-17T05:43:00.091Z,3.45
2023-03-17T05:45:50.718Z,3.46
2023-03-17T05:48:39.384Z,3.45
2023-03-17T05:51:29.060Z,3.51
2023-03-17T05:54:17.686Z,3.51
2023-03-17T05:57:07.990Z,3.51
2023-03-17T05:59:57.336Z,3.59
2023-03-17T06:02:47.765Z,3.65
2023-03-17T06:05:36.669Z,3.67
2023-03-17T06:08:27.443Z,3.72
2023-03-17T06:11:16.507Z,3.79
2023-03-17T06:14:05.869Z,3.74
2023-03-17T06:16:58.668Z,3.95
2023-03-17T06:19:49.558Z,4.03
2023-03-17T06:22:40.873Z,4.00
2023-03-17T06:25:33.262Z,4.19
2023-03-17T06:28:22.342Z,4.20
2023-03-17T06:31:11.547Z,4.20
2023-03-17T06:34:00.280Z,4.24
2023-03-17T06:36:51.734Z,4.25
2023-03-17T06:39:41.770Z,4.26
2023-03-17T06:42:30.764Z,4.30
2023-03-17T06:45:19.351Z,4.36
2023-03-17T06:48:09.078Z,4.40
2023-03-17T06:50:57.681Z,4.47
2023-03-17T06:53:47.643Z,4.45
2023-03-17T06:56:36.513Z,4.53
2023-03-17T06:59:25.546Z,4.58
2023-03-17T07:02:14.661Z,4.67
2023-03-17T07:05:04.700Z,4.77
2023-03-17T07:07:53.450Z,4.80
2023-03-17T07:10:44.228Z,4.89
2023-03-17T07:13:35.909Z,4.97
2023-03-17T07:16:25.300Z,5.05
2023-03-17T07:19:13.941Z,5.15
2023-03-17T07:22:04.221Z,5.26
2023-03-17T07:24:53.685Z,5.39
2023-03-17T07:27:43.662Z,5.44
2023-03-17T07:30:32.699Z,5.56
2023-03-17T07:33:21.746Z,5.60
2023-03-17T07:36:11.543Z,5.61
2023-03-17T07:39:01.424Z,5.60
2023-03-17T07:41:55.090Z,5.66
2023-03-17T07:44:45.509Z,5.85
2023-03-17T07:47:34.198Z,5.94
2023-03-17T07:50:23.231Z,5.95
2023-03-17T07:53:13.318Z,6.08
2023-03-17T07:56:02.385Z,6.18
2023-03-17T07:58:51.829Z,6.25
2023-03-17T08:02:01.620Z,6.38
2023-03-17T08:04:50.982Z,6.52
2023-03-17T08:07:40.803Z,6.68
2023-03-17T08:10:30.325Z,6.84
2023-03-17T08:13:19.837Z,6.99
2023-03-17T08:16:09.552Z,7.15
2023-03-17T08:18:59.775Z,7.35
2023-03-17T08:21:49.932Z,7.58
2023-03-17T08:24:39.700Z,7.73
2023-03-17T08:27:29.289Z,7.81
2023-03-17T08:30:18.889Z,7.97
2023-03-17T08:33:07.587Z,8.20
2023-03-17T08:35:58.117Z,8.52
2023-03-17T08:38:47.537Z,8.76
2023-03-17T08:41:36.844Z,8.91
2023-03-17T08:44:25.633Z,9.10
2023-03-17T08:47:14.781Z,9.25
2023-03-17T08:50:04.526Z,9.38
2023-03-17T08:52:55.510Z,9.66
2023-03-17T08:55:44.081Z,9.99
2023-03-17T08:58:33.406Z,10.19
2023-03-17T09:01:23.027Z,10.32
2023-03-17T09:04:12.555Z,10.52
2023-03-17T09:07:04.025Z,10.71
2023-03-17T09:09:54.383Z,10.77
2023-03-17T09:12:42.976Z,10.68
2023-03-17T09:15:33.834Z,10.88
2023-03-17T09:18:22.963Z,11.02
2023-03-17T09:21:13.487Z,11.44
2023-03-17T09:24:02.730Z,11.87
2023-03-17T09:26:52.861Z,12.31
2023-03-17T09:29:43.194Z,12.44
2023-03-17T09:32:32.927Z,12.86
2023-03-17T09:35:22.408Z,12.96
2023-03-17T09:38:12.825Z,12.92
2023-03-17T09:41:12.551Z,12.72
2023-03-17T09:44:13.117Z,12.79
2023-03-17T09:47:10.151Z,13.17
2023-03-17T09:50:02.124Z,13.28
2023-03-17T09:52:52.246Z,13.42
2023-03-17T09:55:41.610Z,13.56
2023-03-17T09:58:33.142Z,13.84
2023-03-17T10:01:24.096Z,13.92
2023-03-17T10:04:13.217Z,14.08
2023-03-17T10:07:08.112Z,14.25
2023-03-17T10:10:02.998Z,14.45
2023-03-17T10:12:59.733Z,14.66
2023-03-17T10:15:52.465Z,14.73
2023-03-17T10:18:48.258Z,14.82
2023-03-17T10:21:42.393Z,14.64
2023-03-17T10:24:33.783Z,14.81
2023-03-17T10:27:23.247Z,14.79
2023-03-17T10:30:16.203Z,14.69
2023-03-17T10:33:07.560Z,15.10
2023-03-17T10:35:57.567Z,15.48
2023-03-17T10:38:54.596Z,15.88
2023-03-17T10:41:54.862Z,16.13
2023-03-17T10:44:49.497Z,16.08
2023-03-17T10:47:41.260Z,16.25
2023-03-17T10:50:32.690Z,16.37
2023-03-17T10:53:28.636Z,16.43
2023-03-17T10:56:25.886Z,16.64
2023-03-17T10:59:21.253Z,16.77
2023-03-17T11:02:21.257Z,17.00
2023-03-17T11:05:21.166Z,16.94
2023-03-17T11:08:17.826Z,17.03
2023-03-17T11:11:11.920Z,17.16
2023-03-17T11:14:04.806Z,17.36
2023-03-17T11:16:56.793Z,17.47
2023-03-17T11:19:56.801Z,17.56
2023-03-17T11:22:52.377Z,17.67
2023-03-17T11:25:45.647Z,17.88
2023-03-17T11:28:41.596Z,18.11
2023-03-17T11:31:35.147Z,18.36
2023-03-17T11:34:34.245Z,18.49
2023-03-17T11:37:34.982Z,18.66
2023-03-17T11:40:33.290Z,18.78
2023-03-17T11:43:33.173Z,19.08
2023-03-17T11:46:29.244Z,19.53
2023-03-17T11:49:23.246Z,19.79
2023-03-17T11:52:22.802Z,20.09
2023-03-17T11:55:22.810Z,20.30
2023-03-17T11:58:27.847Z,20.35
2023-03-17T12:01:21.668Z,20.53
2023-03-17T12:04:19.464Z,20.42
2023-03-17T12:07:17.953Z,20.37
2023-03-17T12:10:17.517Z,20.71
2023-03-17T12:13:11.980Z,21.11
2023-03-17T12:16:07.035Z,21.32
2023-03-17T12:19:03.287Z,21.43
2023-03-17T12:21:57.295Z,21.35
2023-03-17T12:24:51.335Z,21.39
2023-03-17T12:27:45.502Z,21.25
2023-03-17T12:30:41.430Z,21.27
2023-03-17T12:33:34.570Z,21.38
2023-03-17T12:36:24.424Z,21.59
2023-03-17T12:39:17.269Z,21.23
2023-03-17T12:42:24.090Z,21.53
2023-03-17T12:45:32.528Z,21.68
2023-03-17T12:48:55.831Z,21.66
2023-03-17T12:51:56.177Z,21.71
2023-03-17T12:54:50.106Z,21.64
2023-03-17T12:57:44.882Z,21.59
2023-03-17T13:00:35.036Z,21.48
2023-03-17T13:03:28.268Z,21.51
2023-03-17T13:06:21.152Z,21.62
2023-03-17T13:09:43.701Z,21.64
2023-03-17T13:12:57.476Z,21.57
2023-03-17T13:16:00.597Z,21.91
2023-03-17T13:18:51.280Z,21.80
2023-03-17T13:21:45.358Z,21.65
2023-03-17T13:24:46.927Z,21.82
2023-03-17T13:27:46.112Z,21.81
2023-03-17T13:31:00.823Z,21.59
2023-03-17T13:33:55.470Z,21.72
2023-03-17T13:36:55.961Z,21.82
2023-03-17T13:40:07.967Z,21.85
2023-03-17T13:43:18.475Z,21.64
2023-03-17T13:46:35.971Z,21.52
2023-03-17T13:49:37.192Z,21.47
2023-03-17T13:52:41.111Z,21.36
2023-03-17T13:55:44.821Z,21.07
2023-03-17T13:58:37.093Z,21.02
2023-03-17T14:01:27.426Z,21.14
2023-03-17T14:04:24.139Z,21.14
2023-03-17T14:07:22.132Z,21.09
2023-03-17T14:10:19.180Z,20.93
2023-03-17T14:13:18.921Z,20.78
2023-03-17T14:16:40.955Z,20.74
2023-03-17T14:19:31.160Z,20.51
2023-03-17T14:22:29.002Z,20.47
2023-03-17T14:25:36.365Z,20.50
2023-03-17T14:28:29.643Z,20.48
2023-03-17T14:31:27.059Z,20.40
2023-03-17T14:34:17.544Z,20.30
2023-03-17T14:37:07.563Z,20.20
2023-03-17T14:39:58.896Z,20.29
2023-03-17T14:42:47.755Z,20.29
2023-03-17T14:45:48.647Z,20.30
2023-03-17T14:48:41.796Z,20.22
2023-03-17T14:51:36.003Z,20.34
2023-03-17T14:54:27.750Z,20.33
2023-03-17T14:57:18.459Z,20.26
2023-03-17T15:00:29.988Z,20.18
2023-03-17T15:03:25.977Z,20.06
2023-03-17T15:06:26.429Z,19.92
2023-03-17T15:09:20.298Z,19.97
2023-03-17T15:12:18.902Z,20.07
2023-03-17T15:15:49.206Z,20.04
2023-03-17T15:18:51.178Z,19.98
2023-03-17T15:21:43.326Z,19.92
2023-03-17T15:24:40.476Z,19.81
2023-03-17T15:27:31.055Z,19.74
2023-03-17T15:30:21.059Z,19.74
2023-03-17T15:33:22.326Z,19.61
2023-03-17T15:36:31.236Z,19.46
2023-03-17T15:39:23.419Z,19.33
2023-03-17T15:42:12.963Z,19.41
2023-03-17T15:45:02.813Z,19.38
2023-03-17T15:47:51.507Z,19.43
2023-03-17T15:50:40.658Z,19.39
2023-03-17T15:53:30.129Z,19.34
2023-03-17T15:56:22.232Z,19.25
2023-03-17T15:59:12.054Z,19.31
2023-03-17T16:02:00.995Z,19.32
2023-03-17T16:04:49.707Z,19.27
2023-03-17T16:07:40.320Z,19.34
2023-03-17T16:10:54.704Z,19.44
2023-03-17T16:13:46.971Z,19.78
2023-03-17T16:16:38.835Z,19.89
2023-03-17T16:19:27.696Z,19.81
2023-03-17T16:22:37.420Z,19.59
2023-03-17T16:25:28.113Z,19.34
2023-03-17T16:28:18.604Z,19.22
2023-03-17T16:31:19.184Z,19.12
2023-03-17T16:34:16.094Z,19.16
2023-03-17T16:37:06.755Z,18.98
2023-03-17T16:39:55.431Z,18.74
2023-03-17T16:42:44.784Z,18.52
2023-03-17T16:45:35.607Z,18.49
2023-03-17T16:48:26.612Z,18.41
2023-03-17T16:51:16.046Z,18.12
2023-03-17T16:54:04.742Z,17.91
2023-03-17T16:56:53.808Z,17.76
2023-03-17T16:59:42.425Z,17.64
2023-03-17T17:02:31.607Z,17.43
2023-03-17T17:05:23.361Z,17.23
2023-03-17T17:08:12.322Z,16.87
2023-03-17T17:11:00.988Z,16.60
2023-03-17T17:13:52.151Z,16.42
2023-03-17T17:16:41.144Z,16.47
2023-03-17T17:19:29.925Z,16.44
2023-03-17T17:22:21.542Z,16.33
2023-03-17T17:25:11.525Z,16.05
2023-03-17T17:28:00.900Z,15.95
2023-03-17T17:30:52.555Z,15.93
2023-03-17T17:33:41.138Z,15.88
2023-03-17T17:36:31.042Z,15.85
2023-03-17T17:39:21.507Z,15.64
2023-03-17T17:42:11.863Z,15.52
2023-03-17T17:45:02.088Z,15.31
2023-03-17T17:47:51.262Z,15.31
2023-03-17T17:50:40.773Z,15.30
2023-03-17T17:53:29.408Z,15.28
2023-03-17T17:56:20.391Z,15.22
2023-03-17T17:59:10.655Z,15.12
2023-03-17T18:02:00.919Z,15.01
2023-03-17T18:04:49.684Z,14.89
2023-03-17T18:07:38.943Z,14.60
2023-03-17T18:10:29.725Z,14.55
2023-03-17T18:13:20.191Z,14.41
2023-03-17T18:16:10.800Z,14.31
2023-03-17T18:19:00.825Z,14.21
2023-03-17T18:21:49.774Z,14.15
2023-03-17T18:24:40.183Z,14.01
2023-03-17T18:27:28.758Z,13.84
2023-03-17T18:30:24.862Z,13.88
2023-03-17T18:33:17.452Z,13.93
2023-03-17T18:36:07.010Z,13.90
2023-03-17T18:38:55.949Z,13.86
2023-03-17T18:41:45.682Z,13.78
2023-03-17T18:44:35.595Z,13.74
2023-03-17T18:47:25.757Z,13.69
2023-03-17T18:50:16.398Z,13.64
2023-03-17T18:53:05.115Z,13.61
2023-03-17T18:55:54.187Z,13.55
2023-03-17T18:58:42.838Z,13.49
2023-03-17T19:01:31.947Z,13.45
2023-03-17T19:04:21.956Z,13.42
2023-03-17T19:07:12.125Z,13.37
2023-03-17T19:10:00.991Z,13.30
2023-03-17T19:12:51.151Z,13.29
2023-03-17T19:15:40.372Z,13.20
2023-03-17T19:18:29.781Z,13.10
2023-03-17T19:21:22.009Z,13.01
2023-03-17T19:24:12.236Z,12.94
2023-03-17T19:27:01.599Z,12.93
2023-03-17T19:29:51.042Z,12.88
2023-03-17T19:32:39.756Z,12.73
2023-03-17T19:35:28.778Z,12.65
2023-03-17T19:38:19.652Z,12.48
2023-03-17T19:41:08.700Z,12.51
2023-03-17T19:43:57.766Z,12.47
2023-03-17T19:46:46.377Z,12.44
2023-03-17T19:49:36.275Z,12.41
2023-03-17T19:52:24.964Z,12.36
2023-03-17T19:55:15.834Z,12.33
2023-03-17T19:58:06.202Z,12.27
2023-03-17T20:00:55.415Z,12.22
2023-03-17T20:03:44.471Z,12.22
2023-03-17T20:06:34.501Z,12.05
2023-03-17T20:09:25.032Z,11.95
2023-03-17T20:12:15.301Z,11.91
2023-03-17T20:15:04.859Z,11.87
2023-03-17T20:17:53.866Z,11.89
2023-03-17T20:20:47.779Z,11.83
2023-03-17T20:23:37.734Z,11.72
2023-03-17T20:26:27.286Z,11.73
2023-03-17T20:29:17.581Z,11.66
2023-03-17T20:32:07.616Z,11.58
2023-03-17T20:34:57.270Z,11.59
2023-03-17T20:37:46.414Z,11.55
2023-03-17T20:40:35.540Z,11.49
2023-03-17T20:43:25.306Z,11.48
2023-03-17T20:46:17.685Z,11.41
2023-03-17T20:49:07.410Z,11.31
2023-03-17T20:51:56.105Z,11.24
2023-03-17T20:54:45.586Z,11.20
2023-03-17T20:57:36.965Z,11.17
2023-03-17T21:00:26.223Z,11.13
2023-03-17T21:03:17.959Z,11.10
2023-03-17T21:06:06.938Z,10.99
2023-03-17T21:08:55.697Z,10.91
2023-03-17T21:11:45.290Z,10.88
2023-03-17T21:14:34.297Z,10.85
2023-03-17T21:17:24.452Z,10.75
2023-03-17T21:20:15.918Z,10.68
2023-03-17T21:23:07.681Z,10.59
2023-03-17T21:25:57.998Z,10.43
2023-03-17T21:28:47.595Z,10.36
2023-03-17T21:31:36.283Z,10.33
2023-03-17T21:34:25.792Z,10.34
2023-03-17T21:37:18.902Z,10.23
2023-03-17T21:40:09.257Z,10.14
2023-03-17T21:42:58.398Z,9.97
2023-03-17T21:45:47.590Z,9.67
2023-03-17T21:48:37.487Z,9.36
2023-03-17T21:51:27.297Z,9.15
2023-03-17T21:54:17.720Z,9.17
2023-03-17T21:57:06.375Z,9.37
2023-03-17T21:59:56.237Z,9.47
2023-03-17T22:02:44.992Z,9.42
2023-03-17T22:05:34.801Z,9.37
2023-03-17T22:08:23.613Z,9.25
2023-03-17T22:11:16.998Z,9.21
2023-03-17T22:14:05.633Z,9.16
2023-03-17T22:16:55.843Z,9.13
2023-03-17T22:19:45.454Z,9.19
2023-03-17T22:22:34.503Z,9.22
2023-03-17T22:25:24.932Z,9.20
2023-03-17T22:28:15.418Z,9.10
2023-03-17T22:31:07.189Z,9.02
2023-03-17T22:33:57.823Z,8.97
2023-03-17T22:36:48.112Z,9.01
2023-03-17T22:39:36.772Z,9.02
2023-03-17T22:42:26.373Z,8.84
2023-03-17T22:45:16.506Z,8.81
2023-03-17T22:48:06.279Z,8.87
2023-03-17T22:50:55.415Z,8.87
2023-03-17T22:53:45.187Z,8.86
2023-03-17T22:56:33.791Z,8.76
2023-03-17T22:59:22.955Z,8.68
2023-03-17T23:02:12.998Z,8.72
2023-03-17T23:05:02.125Z,8.65
2023-03-17T23:07:52.261Z,8.51
2023-03-17T23:10:42.734Z,8.45
2023-03-17T23:13:31.562Z,8.18
2023-03-17T23:16:22.044Z,8.05
2023-03-17T23:19:12.118Z,8.10
2023-03-17T23:22:01.744Z,8.04
2023-03-17T23:24:50.813Z,8.02
2023-03-17T23:27:40.379Z,8.04
2023-03-17T23:30:29.691Z,8.03
2023-03-17T23:33:22.796Z,7.98
2023-03-17T23:36:14.117Z,7.98
2023-03-17T23:39:04.104Z,7.97
2023-03-17T23:41:52.837Z,7.98
2023-03-17T23:44:41.851Z,7.94
2023-03-17T23:47:31.852Z,7.95
2023-03-17T23:50:21.175Z,7.96
2023-03-17T23:53:13.221Z,7.83
2023-03-17T23:56:02.629Z,7.84
2023-03-17T23:58:52.055Z,7.86
